sensor_id;sensor_type;location;lat;lon;timestamp;P1;durP1;ratioP1;P2;durP2;ratioP2
72949;SDS011;64868;45.710;9.590;2023-08-30T00:02:25;5.45;;;0.98;;
72949;SDS011;64868;45.710;9.590;2023-08-30T00:04:57;3.97;;;1.00;;
72949;SDS011;64868;45.710;9.590;2023-08-30T00:07:30;2.97;;;1.05;;
72949;SDS011;64868;45.710;9.590;2023-08-30T00:10:02;3.30;;;0.90;;
72949;SDS011;64868;45.710;9.590;2023-08-30T00:12:35;2.63;;;0.80;;
72949;SDS011;64868;45.710;9.590;2023-08-30T00:15:05;3.38;;;1.02;;
72949;SDS011;64868;45.710;9.590;2023-08-30T00:17:38;5.20;;;0.90;;
72949;SDS011;64868;45.710;9.590;2023-08-30T00:20:09;2.58;;;0.70;;
72949;SDS011;64868;45.710;9.590;2023-08-30T00:22:39;3.00;;;0.70;;
72949;SDS011;64868;45.710;9.590;2023-08-30T00:25:12;3.60;;;0.85;;
72949;SDS011;64868;45.710;9.590;2023-08-30T00:27:44;2.08;;;0.63;;
72949;SDS011;64868;45.710;9.590;2023-08-30T00:30:17;3.72;;;0.88;;
72949;SDS011;64868;45.710;9.590;2023-08-30T00:32:47;4.15;;;0.77;;
72949;SDS011;64868;45.710;9.590;2023-08-30T00:35:18;2.80;;;0.90;;
72949;SDS011;64868;45.710;9.590;2023-08-30T00:37:48;4.00;;;0.75;;
72949;SDS011;64868;45.710;9.590;2023-08-30T00:40:22;3.58;;;0.80;;
72949;SDS011;64868;45.710;9.590;2023-08-30T00:42:54;4.70;;;0.90;;
72949;SDS011;64868;45.710;9.590;2023-08-30T00:45:28;4.90;;;0.80;;
72949;SDS011;64868;45.710;9.590;2023-08-30T00:47:56;2.03;;;0.40;;
72949;SDS011;64868;45.710;9.590;2023-08-30T00:50:32;3.13;;;0.80;;
72949;SDS011;64868;45.710;9.590;2023-08-30T00:53:05;4.57;;;1.10;;
72949;SDS011;64868;45.710;9.590;2023-08-30T00:55:38;5.65;;;1.00;;
72949;SDS011;64868;45.710;9.590;2023-08-30T00:58:11;3.25;;;0.90;;
72949;SDS011;64868;45.710;9.590;2023-08-30T01:00:41;2.90;;;0.77;;
72949;SDS011;64868;45.710;9.590;2023-08-30T01:03:11;4.25;;;0.88;;
72949;SDS011;64868;45.710;9.590;2023-08-30T01:05:44;4.10;;;0.98;;
72949;SDS011;64868;45.710;9.590;2023-08-30T01:08:17;4.68;;;0.82;;
72949;SDS011;64868;45.710;9.590;2023-08-30T01:13:43;5.30;;;1.10;;
72949;SDS011;64868;45.710;9.590;2023-08-30T01:16:20;4.82;;;0.80;;
72949;SDS011;64868;45.710;9.590;2023-08-30T01:18:53;3.47;;;0.82;;
72949;SDS011;64868;45.710;9.590;2023-08-30T01:21:43;2.72;;;0.77;;
72949;SDS011;64868;45.710;9.590;2023-08-30T01:24:23;3.00;;;0.88;;
72949;SDS011;64868;45.710;9.590;2023-08-30T01:27:15;4.25;;;0.75;;
72949;SDS011;64868;45.710;9.590;2023-08-30T01:29:49;2.75;;;0.80;;
72949;SDS011;64868;45.710;9.590;2023-08-30T01:32:22;3.20;;;0.93;;
72949;SDS011;64868;45.710;9.590;2023-08-30T01:34:56;3.33;;;0.70;;
72949;SDS011;64868;45.710;9.590;2023-08-30T01:37:28;3.45;;;0.80;;
72949;SDS011;64868;45.710;9.590;2023-08-30T01:40:02;3.72;;;0.95;;
72949;SDS011;64868;45.710;9.590;2023-08-30T01:42:34;5.07;;;1.10;;
72949;SDS011;64868;45.710;9.590;2023-08-30T01:45:08;2.75;;;0.63;;
72949;SDS011;64868;45.710;9.590;2023-08-30T01:47:45;3.45;;;0.98;;
72949;SDS011;64868;45.710;9.590;2023-08-30T01:50:19;5.15;;;0.90;;
72949;SDS011;64868;45.710;9.590;2023-08-30T01:52:49;3.53;;;0.90;;
72949;SDS011;64868;45.710;9.590;2023-08-30T01:55:20;5.88;;;1.20;;
72949;SDS011;64868;45.710;9.590;2023-08-30T01:57:51;2.85;;;0.80;;
72949;SDS011;64868;45.710;9.590;2023-08-30T02:00:21;2.13;;;0.63;;
72949;SDS011;64868;45.710;9.590;2023-08-30T02:02:53;3.42;;;0.70;;
72949;SDS011;64868;45.710;9.590;2023-08-30T02:05:26;3.95;;;0.90;;
72949;SDS011;64868;45.710;9.590;2023-08-30T02:10:34;3.72;;;0.90;;
72949;SDS011;64868;45.710;9.590;2023-08-30T02:13:04;3.83;;;0.50;;
72949;SDS011;64868;45.710;9.590;2023-08-30T02:15:38;7.05;;;0.93;;
72949;SDS011;64868;45.710;9.590;2023-08-30T02:18:12;3.03;;;0.75;;
72949;SDS011;64868;45.710;9.590;2023-08-30T02:20:45;3.38;;;0.75;;
72949;SDS011;64868;45.710;9.590;2023-08-30T02:23:18;2.17;;;0.50;;
72949;SDS011;64868;45.710;9.590;2023-08-30T02:25:49;4.80;;;0.77;;
72949;SDS011;64868;45.710;9.590;2023-08-30T02:28:22;4.40;;;0.80;;
72949;SDS011;64868;45.710;9.590;2023-08-30T02:30:55;2.25;;;0.60;;
72949;SDS011;64868;45.710;9.590;2023-08-30T02:33:25;4.53;;;0.70;;
72949;SDS011;64868;45.710;9.590;2023-08-30T02:35:57;2.50;;;0.63;;
72949;SDS011;64868;45.710;9.590;2023-08-30T02:38:27;4.20;;;0.80;;
72949;SDS011;64868;45.710;9.590;2023-08-30T02:41:00;2.40;;;0.50;;
72949;SDS011;64868;45.710;9.590;2023-08-30T02:43:33;2.95;;;0.82;;
72949;SDS011;64868;45.710;9.590;2023-08-30T02:46:05;4.00;;;0.73;;
72949;SDS011;64868;45.710;9.590;2023-08-30T02:48:38;2.75;;;0.60;;
72949;SDS011;64868;45.710;9.590;2023-08-30T02:51:11;2.63;;;0.82;;
72949;SDS011;64868;45.710;9.590;2023-08-30T02:53:38;2.05;;;0.60;;
72949;SDS011;64868;45.710;9.590;2023-08-30T02:56:06;4.68;;;0.63;;
72949;SDS011;64868;45.710;9.590;2023-08-30T02:58:39;1.83;;;0.60;;
72949;SDS011;64868;45.710;9.590;2023-08-30T03:01:11;2.47;;;0.60;;
72949;SDS011;64868;45.710;9.590;2023-08-30T03:03:41;5.22;;;0.80;;
72949;SDS011;64868;45.710;9.590;2023-08-30T03:06:15;4.05;;;0.57;;
72949;SDS011;64868;45.710;9.590;2023-08-30T03:08:45;6.88;;;0.80;;
72949;SDS011;64868;45.710;9.590;2023-08-30T03:11:17;2.20;;;0.32;;
72949;SDS011;64868;45.710;9.590;2023-08-30T03:13:50;1.98;;;0.65;;
72949;SDS011;64868;45.710;9.590;2023-08-30T03:16:23;2.75;;;0.80;;
72949;SDS011;64868;45.710;9.590;2023-08-30T03:18:56;2.63;;;0.70;;
72949;SDS011;64868;45.710;9.590;2023-08-30T03:21:29;3.40;;;0.75;;
72949;SDS011;64868;45.710;9.590;2023-08-30T03:24:01;3.08;;;0.80;;
72949;SDS011;64868;45.710;9.590;2023-08-30T03:26:31;2.35;;;0.60;;
72949;SDS011;64868;45.710;9.590;2023-08-30T03:29:04;3.63;;;0.75;;
72949;SDS011;64868;45.710;9.590;2023-08-30T03:31:36;2.42;;;0.52;;
72949;SDS011;64868;45.710;9.590;2023-08-30T03:34:07;2.63;;;0.70;;
72949;SDS011;64868;45.710;9.590;2023-08-30T03:36:37;4.05;;;0.70;;
72949;SDS011;64868;45.710;9.590;2023-08-30T03:39:07;2.13;;;0.60;;
72949;SDS011;64868;45.710;9.590;2023-08-30T03:41:40;2.33;;;0.57;;
72949;SDS011;64868;45.710;9.590;2023-08-30T03:44:13;4.47;;;0.75;;
72949;SDS011;64868;45.710;9.590;2023-08-30T03:46:45;2.90;;;0.70;;
72949;SDS011;64868;45.710;9.590;2023-08-30T03:49:13;3.22;;;0.70;;
72949;SDS011;64868;45.710;9.590;2023-08-30T03:51:46;3.42;;;0.50;;
72949;SDS011;64868;45.710;9.590;2023-08-30T03:54:18;3.55;;;0.77;;
72949;SDS011;64868;45.710;9.590;2023-08-30T03:56:51;3.13;;;0.70;;
72949;SDS011;64868;45.710;9.590;2023-08-30T03:59:23;3.60;;;0.70;;
72949;SDS011;64868;45.710;9.590;2023-08-30T04:01:53;2.10;;;0.60;;
72949;SDS011;64868;45.710;9.590;2023-08-30T04:04:26;2.35;;;0.70;;
72949;SDS011;64868;45.710;9.590;2023-08-30T04:06:59;2.42;;;0.70;;
72949;SDS011;64868;45.710;9.590;2023-08-30T04:09:31;2.67;;;0.70;;
72949;SDS011;64868;45.710;9.590;2023-08-30T04:12:04;2.03;;;0.40;;
72949;SDS011;64868;45.710;9.590;2023-08-30T04:14:36;6.18;;;0.90;;
72949;SDS011;64868;45.710;9.590;2023-08-30T04:17:04;3.78;;;0.80;;
72949;SDS011;64868;45.710;9.590;2023-08-30T04:19:34;2.85;;;0.70;;
72949;SDS011;64868;45.710;9.590;2023-08-30T04:22:05;2.22;;;0.65;;
72949;SDS011;64868;45.710;9.590;2023-08-30T04:24:35;4.07;;;0.82;;
72949;SDS011;64868;45.710;9.590;2023-08-30T04:27:03;1.88;;;0.70;;
72949;SDS011;64868;45.710;9.590;2023-08-30T04:29:33;2.47;;;0.70;;
72949;SDS011;64868;45.710;9.590;2023-08-30T04:32:03;4.20;;;0.80;;
72949;SDS011;64868;45.710;9.590;2023-08-30T04:34:35;3.42;;;0.88;;
72949;SDS011;64868;45.710;9.590;2023-08-30T04:37:08;6.72;;;0.90;;
72949;SDS011;64868;45.710;9.590;2023-08-30T04:39:41;2.85;;;0.60;;
72949;SDS011;64868;45.710;9.590;2023-08-30T04:42:16;5.00;;;0.80;;
72949;SDS011;64868;45.710;9.590;2023-08-30T04:44:46;4.80;;;0.60;;
72949;SDS011;64868;45.710;9.590;2023-08-30T04:47:18;3.38;;;0.80;;
72949;SDS011;64868;45.710;9.590;2023-08-30T04:49:54;3.90;;;0.77;;
72949;SDS011;64868;45.710;9.590;2023-08-30T04:52:25;2.83;;;0.63;;
72949;SDS011;64868;45.710;9.590;2023-08-30T04:54:57;3.25;;;0.50;;
72949;SDS011;64868;45.710;9.590;2023-08-30T04:57:27;3.03;;;0.80;;
72949;SDS011;64868;45.710;9.590;2023-08-30T04:59:55;3.28;;;0.70;;
72949;SDS011;64868;45.710;9.590;2023-08-30T05:02:28;2.72;;;0.70;;
72949;SDS011;64868;45.710;9.590;2023-08-30T05:04:58;3.28;;;0.60;;
72949;SDS011;64868;45.710;9.590;2023-08-30T05:07:31;3.75;;;0.77;;
72949;SDS011;64868;45.710;9.590;2023-08-30T05:10:03;6.22;;;0.70;;
72949;SDS011;64868;45.710;9.590;2023-08-30T05:12:37;2.83;;;0.95;;
72949;SDS011;64868;45.710;9.590;2023-08-30T05:15:09;3.53;;;0.70;;
72949;SDS011;64868;45.710;9.590;2023-08-30T05:17:42;5.10;;;0.77;;
72949;SDS011;64868;45.710;9.590;2023-08-30T05:20:15;1.90;;;0.55;;
72949;SDS011;64868;45.710;9.590;2023-08-30T05:22:47;2.00;;;0.60;;
72949;SDS011;64868;45.710;9.590;2023-08-30T05:25:20;3.03;;;0.90;;
72949;SDS011;64868;45.710;9.590;2023-08-30T05:27:53;2.95;;;0.40;;
72949;SDS011;64868;45.710;9.590;2023-08-30T05:30:23;2.45;;;0.60;;
72949;SDS011;64868;45.710;9.590;2023-08-30T05:32:53;3.50;;;0.70;;
72949;SDS011;64868;45.710;9.590;2023-08-30T05:35:26;2.28;;;0.60;;
72949;SDS011;64868;45.710;9.590;2023-08-30T05:37:59;2.15;;;0.63;;
72949;SDS011;64868;45.710;9.590;2023-08-30T05:40:31;5.90;;;0.70;;
72949;SDS011;64868;45.710;9.590;2023-08-30T05:43:01;2.75;;;0.65;;
72949;SDS011;64868;45.710;9.590;2023-08-30T05:45:34;4.75;;;0.70;;
72949;SDS011;64868;45.710;9.590;2023-08-30T05:48:04;3.92;;;0.65;;
72949;SDS011;64868;45.710;9.590;2023-08-30T05:50:38;3.50;;;0.77;;
72949;SDS011;64868;45.710;9.590;2023-08-30T05:53:08;4.07;;;0.80;;
72949;SDS011;64868;45.710;9.590;2023-08-30T05:55:40;2.63;;;0.52;;
72949;SDS011;64868;45.710;9.590;2023-08-30T05:58:08;2.17;;;0.70;;
72949;SDS011;64868;45.710;9.590;2023-08-30T06:00:41;2.25;;;0.60;;
72949;SDS011;64868;45.710;9.590;2023-08-30T06:03:13;1.42;;;0.40;;
72949;SDS011;64868;45.710;9.590;2023-08-30T06:05:45;2.50;;;0.70;;
72949;SDS011;64868;45.710;9.590;2023-08-30T06:08:16;14.40;;;0.88;;
72949;SDS011;64868;45.710;9.590;2023-08-30T06:10:46;4.93;;;0.80;;
72949;SDS011;64868;45.710;9.590;2023-08-30T06:13:16;5.05;;;0.65;;
72949;SDS011;64868;45.710;9.590;2023-08-30T06:15:50;6.72;;;0.80;;
72949;SDS011;64868;45.710;9.590;2023-08-30T06:18:22;3.28;;;0.55;;
72949;SDS011;64868;45.710;9.590;2023-08-30T06:20:55;2.95;;;0.75;;
72949;SDS011;64868;45.710;9.590;2023-08-30T06:23:25;5.55;;;0.80;;
72949;SDS011;64868;45.710;9.590;2023-08-30T06:25:58;4.05;;;0.95;;
72949;SDS011;64868;45.710;9.590;2023-08-30T06:28:30;5.00;;;0.77;;
72949;SDS011;64868;45.710;9.590;2023-08-30T06:31:03;9.65;;;1.10;;
72949;SDS011;64868;45.710;9.590;2023-08-30T06:33:33;6.07;;;0.77;;
72949;SDS011;64868;45.710;9.590;2023-08-30T06:36:06;3.13;;;0.77;;
72949;SDS011;64868;45.710;9.590;2023-08-30T06:38:38;2.47;;;0.60;;
72949;SDS011;64868;45.710;9.590;2023-08-30T06:41:04;3.40;;;0.85;;
72949;SDS011;64868;45.710;9.590;2023-08-30T06:43:35;5.68;;;0.63;;
72949;SDS011;64868;45.710;9.590;2023-08-30T06:46:07;5.20;;;0.75;;
72949;SDS011;64868;45.710;9.590;2023-08-30T06:48:38;3.20;;;0.60;;
72949;SDS011;64868;45.710;9.590;2023-08-30T06:51:07;3.95;;;0.52;;
72949;SDS011;64868;45.710;9.590;2023-08-30T06:53:35;2.50;;;0.73;;
72949;SDS011;64868;45.710;9.590;2023-08-30T06:56:08;4.50;;;0.77;;
72949;SDS011;64868;45.710;9.590;2023-08-30T06:58:36;2.25;;;0.60;;
72949;SDS011;64868;45.710;9.590;2023-08-30T07:01:08;3.47;;;0.88;;
72949;SDS011;64868;45.710;9.590;2023-08-30T07:03:39;5.15;;;0.98;;
72949;SDS011;64868;45.710;9.590;2023-08-30T07:06:11;3.60;;;0.80;;
72949;SDS011;64868;45.710;9.590;2023-08-30T07:08:44;3.47;;;0.90;;
72949;SDS011;64868;45.710;9.590;2023-08-30T07:11:17;3.78;;;0.80;;
72949;SDS011;64868;45.710;9.590;2023-08-30T07:13:49;3.63;;;0.82;;
72949;SDS011;64868;45.710;9.590;2023-08-30T07:16:22;5.35;;;0.70;;
72949;SDS011;64868;45.710;9.590;2023-08-30T07:18:55;3.22;;;0.70;;
72949;SDS011;64868;45.710;9.590;2023-08-30T07:21:27;4.25;;;0.90;;
72949;SDS011;64868;45.710;9.590;2023-08-30T07:24:00;2.78;;;0.50;;
72949;SDS011;64868;45.710;9.590;2023-08-30T07:26:32;3.95;;;0.77;;
72949;SDS011;64868;45.710;9.590;2023-08-30T07:29:05;4.47;;;0.80;;
72949;SDS011;64868;45.710;9.590;2023-08-30T07:31:35;5.13;;;1.00;;
72949;SDS011;64868;45.710;9.590;2023-08-30T07:34:08;3.20;;;0.90;;
72949;SDS011;64868;45.710;9.590;2023-08-30T07:36:41;3.85;;;0.93;;
72949;SDS011;64868;45.710;9.590;2023-08-30T07:39:11;3.90;;;0.70;;
72949;SDS011;64868;45.710;9.590;2023-08-30T07:41:41;3.38;;;0.60;;
72949;SDS011;64868;45.710;9.590;2023-08-30T07:44:09;2.97;;;0.70;;
72949;SDS011;64868;45.710;9.590;2023-08-30T07:46:39;2.22;;;0.70;;
72949;SDS011;64868;45.710;9.590;2023-08-30T07:49:07;3.47;;;0.90;;
72949;SDS011;64868;45.710;9.590;2023-08-30T07:51:39;8.57;;;1.15;;
72949;SDS011;64868;45.710;9.590;2023-08-30T07:54:07;5.28;;;1.10;;
72949;SDS011;64868;45.710;9.590;2023-08-30T07:56:35;4.78;;;0.70;;
72949;SDS011;64868;45.710;9.590;2023-08-30T07:59:05;4.07;;;1.33;;
72949;SDS011;64868;45.710;9.590;2023-08-30T08:01:38;4.88;;;1.20;;
72949;SDS011;64868;45.710;9.590;2023-08-30T08:04:11;7.35;;;1.23;;
72949;SDS011;64868;45.710;9.590;2023-08-30T08:06:41;7.18;;;1.52;;
72949;SDS011;64868;45.710;9.590;2023-08-30T08:09:13;5.78;;;1.65;;
72949;SDS011;64868;45.710;9.590;2023-08-30T08:11:43;7.82;;;2.00;;
72949;SDS011;64868;45.710;9.590;2023-08-30T08:14:13;5.35;;;1.45;;
72949;SDS011;64868;45.710;9.590;2023-08-30T08:16:46;7.18;;;2.08;;
72949;SDS011;64868;45.710;9.590;2023-08-30T08:19:16;8.40;;;1.90;;
72949;SDS011;64868;45.710;9.590;2023-08-30T08:21:49;5.40;;;2.05;;
72949;SDS011;64868;45.710;9.590;2023-08-30T08:24:22;9.48;;;2.20;;
72949;SDS011;64868;45.710;9.590;2023-08-30T08:26:49;6.57;;;2.00;;
72949;SDS011;64868;45.710;9.590;2023-08-30T08:29:22;6.57;;;2.22;;
72949;SDS011;64868;45.710;9.590;2023-08-30T08:31:56;7.10;;;1.88;;
72949;SDS011;64868;45.710;9.590;2023-08-30T08:34:26;8.65;;;1.80;;
72949;SDS011;64868;45.710;9.590;2023-08-30T08:36:58;8.80;;;1.80;;
72949;SDS011;64868;45.710;9.590;2023-08-30T08:39:29;7.50;;;2.30;;
72949;SDS011;64868;45.710;9.590;2023-08-30T08:42:01;6.40;;;2.00;;
72949;SDS011;64868;45.710;9.590;2023-08-30T08:44:34;7.20;;;2.40;;
72949;SDS011;64868;45.710;9.590;2023-08-30T08:47:03;5.82;;;2.03;;
72949;SDS011;64868;45.710;9.590;2023-08-30T08:49:36;5.95;;;1.88;;
72949;SDS011;64868;45.710;9.590;2023-08-30T08:52:09;7.47;;;1.80;;
72949;SDS011;64868;45.710;9.590;2023-08-30T08:54:44;7.35;;;2.00;;
72949;SDS011;64868;45.710;9.590;2023-08-30T08:57:14;5.60;;;1.75;;
72949;SDS011;64868;45.710;9.590;2023-08-30T08:59:44;6.00;;;1.88;;
72949;SDS011;64868;45.710;9.590;2023-08-30T09:02:18;5.43;;;1.52;;
72949;SDS011;64868;45.710;9.590;2023-08-30T09:04:51;6.53;;;2.20;;
72949;SDS011;64868;45.710;9.590;2023-08-30T09:07:25;8.25;;;2.40;;
72949;SDS011;64868;45.710;9.590;2023-08-30T09:09:54;6.75;;;1.98;;
72949;SDS011;64868;45.710;9.590;2023-08-30T09:12:22;7.50;;;2.95;;
72949;SDS011;64868;45.710;9.590;2023-08-30T09:14:54;7.75;;;2.20;;
72949;SDS011;64868;45.710;9.590;2023-08-30T09:17:34;7.38;;;2.03;;
72949;SDS011;64868;45.710;9.590;2023-08-30T09:20:12;8.35;;;2.25;;
72949;SDS011;64868;45.710;9.590;2023-08-30T09:22:46;6.70;;;2.30;;
72949;SDS011;64868;45.710;9.590;2023-08-30T09:25:26;9.73;;;2.05;;
72949;SDS011;64868;45.710;9.590;2023-08-30T09:27:58;7.47;;;2.25;;
72949;SDS011;64868;45.710;9.590;2023-08-30T09:30:29;8.23;;;2.20;;
72949;SDS011;64868;45.710;9.590;2023-08-30T09:33:05;6.45;;;2.05;;
72949;SDS011;64868;45.710;9.590;2023-08-30T09:35:34;6.70;;;2.20;;
72949;SDS011;64868;45.710;9.590;2023-08-30T09:38:15;7.50;;;2.05;;
72949;SDS011;64868;45.710;9.590;2023-08-30T09:40:44;7.50;;;1.90;;
72949;SDS011;64868;45.710;9.590;2023-08-30T09:43:17;5.55;;;2.30;;
72949;SDS011;64868;45.710;9.590;2023-08-30T09:45:51;6.25;;;1.70;;
72949;SDS011;64868;45.710;9.590;2023-08-30T09:48:27;6.60;;;2.10;;
72949;SDS011;64868;45.710;9.590;2023-08-30T09:50:59;6.32;;;2.22;;
72949;SDS011;64868;45.710;9.590;2023-08-30T09:53:30;5.95;;;1.90;;
72949;SDS011;64868;45.710;9.590;2023-08-30T09:56:08;5.72;;;1.90;;
72949;SDS011;64868;45.710;9.590;2023-08-30T09:58:39;7.75;;;2.35;;
72949;SDS011;64868;45.710;9.590;2023-08-30T10:01:08;7.63;;;1.90;;
72949;SDS011;64868;45.710;9.590;2023-08-30T10:03:38;6.00;;;2.17;;
72949;SDS011;64868;45.710;9.590;2023-08-30T10:06:09;5.00;;;1.50;;
72949;SDS011;64868;45.710;9.590;2023-08-30T10:08:40;4.68;;;1.52;;
72949;SDS011;64868;45.710;9.590;2023-08-30T10:13:43;6.15;;;1.75;;
72949;SDS011;64868;45.710;9.590;2023-08-30T10:16:12;6.05;;;1.92;;
72949;SDS011;64868;45.710;9.590;2023-08-30T10:18:48;6.07;;;1.88;;
72949;SDS011;64868;45.710;9.590;2023-08-30T10:21:23;6.07;;;2.00;;
72949;SDS011;64868;45.710;9.590;2023-08-30T10:23:53;6.07;;;2.10;;
72949;SDS011;64868;45.710;9.590;2023-08-30T10:26:26;7.63;;;2.25;;
72949;SDS011;64868;45.710;9.590;2023-08-30T10:29:00;7.32;;;2.20;;
72949;SDS011;64868;45.710;9.590;2023-08-30T10:31:30;10.35;;;2.58;;
72949;SDS011;64868;45.710;9.590;2023-08-30T10:34:00;6.68;;;2.50;;
72949;SDS011;64868;45.710;9.590;2023-08-30T10:36:42;6.53;;;2.50;;
72949;SDS011;64868;45.710;9.590;2023-08-30T10:39:26;6.35;;;3.00;;
72949;SDS011;64868;45.710;9.590;2023-08-30T10:42:00;8.00;;;2.47;;
72949;SDS011;64868;45.710;9.590;2023-08-30T10:44:45;9.73;;;3.00;;
72949;SDS011;64868;45.710;9.590;2023-08-30T10:47:19;7.28;;;2.50;;
72949;SDS011;64868;45.710;9.590;2023-08-30T10:49:59;5.75;;;2.30;;
72949;SDS011;64868;45.710;9.590;2023-08-30T10:55:16;5.35;;;1.90;;
72949;SDS011;64868;45.710;9.590;2023-08-30T10:57:57;6.65;;;3.10;;
72949;SDS011;64868;45.710;9.590;2023-08-30T11:00:30;6.85;;;2.70;;
72949;SDS011;64868;45.710;9.590;2023-08-30T11:03:00;9.38;;;3.13;;
72949;SDS011;64868;45.710;9.590;2023-08-30T11:05:30;6.97;;;2.40;;
72949;SDS011;64868;45.710;9.590;2023-08-30T11:08:03;8.30;;;2.10;;
72949;SDS011;64868;45.710;9.590;2023-08-30T11:10:40;5.72;;;1.65;;
72949;SDS011;64868;45.710;9.590;2023-08-30T11:13:14;5.10;;;2.00;;
72949;SDS011;64868;45.710;9.590;2023-08-30T11:15:44;6.22;;;1.92;;
72949;SDS011;64868;45.710;9.590;2023-08-30T11:18:14;6.10;;;1.95;;
72949;SDS011;64868;45.710;9.590;2023-08-30T11:20:50;6.53;;;1.60;;
72949;SDS011;64868;45.710;9.590;2023-08-30T11:23:27;5.88;;;1.30;;
72949;SDS011;64868;45.710;9.590;2023-08-30T11:26:00;4.85;;;2.10;;
72949;SDS011;64868;45.710;9.590;2023-08-30T11:28:31;5.68;;;1.27;;
72949;SDS011;64868;45.710;9.590;2023-08-30T11:31:01;4.55;;;1.50;;
72949;SDS011;64868;45.710;9.590;2023-08-30T11:33:33;5.40;;;1.42;;
72949;SDS011;64868;45.710;9.590;2023-08-30T11:36:03;4.10;;;1.20;;
72949;SDS011;64868;45.710;9.590;2023-08-30T11:38:33;5.55;;;1.50;;
72949;SDS011;64868;45.710;9.590;2023-08-30T11:41:05;4.93;;;1.05;;
72949;SDS011;64868;45.710;9.590;2023-08-30T11:43:36;5.65;;;1.10;;
72949;SDS011;64868;45.710;9.590;2023-08-30T11:46:07;4.40;;;1.27;;
72949;SDS011;64868;45.710;9.590;2023-08-30T11:48:37;6.03;;;2.25;;
72949;SDS011;64868;45.710;9.590;2023-08-30T11:51:10;5.88;;;2.00;;
72949;SDS011;64868;45.710;9.590;2023-08-30T11:53:42;5.00;;;1.80;;
72949;SDS011;64868;45.710;9.590;2023-08-30T11:56:13;6.05;;;1.80;;
72949;SDS011;64868;45.710;9.590;2023-08-30T11:58:46;7.13;;;1.60;;
72949;SDS011;64868;45.710;9.590;2023-08-30T12:01:19;6.18;;;1.60;;
72949;SDS011;64868;45.710;9.590;2023-08-30T12:03:51;5.40;;;1.50;;
72949;SDS011;64868;45.710;9.590;2023-08-30T12:06:23;4.93;;;1.67;;
72949;SDS011;64868;45.710;9.590;2023-08-30T12:08:57;5.28;;;1.35;;
72949;SDS011;64868;45.710;9.590;2023-08-30T12:11:31;6.60;;;1.20;;
72949;SDS011;64868;45.710;9.590;2023-08-30T12:14:04;4.90;;;1.40;;
72949;SDS011;64868;45.710;9.590;2023-08-30T12:16:34;5.20;;;1.90;;
72949;SDS011;64868;45.710;9.590;2023-08-30T12:19:13;4.95;;;1.42;;
72949;SDS011;64868;45.710;9.590;2023-08-30T12:21:46;3.67;;;1.05;;
72949;SDS011;64868;45.710;9.590;2023-08-30T12:24:16;5.95;;;1.48;;
72949;SDS011;64868;45.710;9.590;2023-08-30T12:26:46;4.00;;;0.90;;
72949;SDS011;64868;45.710;9.590;2023-08-30T12:29:19;4.50;;;1.00;;
72949;SDS011;64868;45.710;9.590;2023-08-30T12:31:51;4.07;;;0.80;;
72949;SDS011;64868;45.710;9.590;2023-08-30T12:34:24;3.42;;;0.70;;
72949;SDS011;64868;45.710;9.590;2023-08-30T12:36:57;5.88;;;1.77;;
72949;SDS011;64868;45.710;9.590;2023-08-30T12:39:27;5.13;;;1.23;;
72949;SDS011;64868;45.710;9.590;2023-08-30T12:41:55;3.40;;;0.82;;
72949;SDS011;64868;45.710;9.590;2023-08-30T12:44:25;4.53;;;1.00;;
72949;SDS011;64868;45.710;9.590;2023-08-30T12:46:58;2.72;;;0.55;;
72949;SDS011;64868;45.710;9.590;2023-08-30T12:49:28;4.85;;;0.90;;
72949;SDS011;64868;45.710;9.590;2023-08-30T12:52:00;4.20;;;0.80;;
72949;SDS011;64868;45.710;9.590;2023-08-30T12:54:33;3.03;;;0.77;;
72949;SDS011;64868;45.710;9.590;2023-08-30T12:57:03;4.60;;;1.00;;
72949;SDS011;64868;45.710;9.590;2023-08-30T12:59:36;3.85;;;1.10;;
72949;SDS011;64868;45.710;9.590;2023-08-30T13:02:08;4.25;;;0.73;;
72949;SDS011;64868;45.710;9.590;2023-08-30T13:04:41;3.78;;;0.80;;
72949;SDS011;64868;45.710;9.590;2023-08-30T13:07:14;3.47;;;0.90;;
72949;SDS011;64868;45.710;9.590;2023-08-30T13:09:42;1.65;;;0.38;;
72949;SDS011;64868;45.710;9.590;2023-08-30T13:12:13;2.00;;;0.40;;
72949;SDS011;64868;45.710;9.590;2023-08-30T13:14:43;3.13;;;0.70;;
72949;SDS011;64868;45.710;9.590;2023-08-30T13:17:11;2.78;;;0.60;;
72949;SDS011;64868;45.710;9.590;2023-08-30T13:19:44;2.58;;;0.50;;
72949;SDS011;64868;45.710;9.590;2023-08-30T13:22:14;2.85;;;0.73;;
72949;SDS011;64868;45.710;9.590;2023-08-30T13:24:44;1.85;;;0.50;;
72949;SDS011;64868;45.710;9.590;2023-08-30T13:27:17;2.13;;;0.50;;
72949;SDS011;64868;45.710;9.590;2023-08-30T13:29:45;2.47;;;0.50;;
72949;SDS011;64868;45.710;9.590;2023-08-30T13:32:18;2.97;;;0.50;;
72949;SDS011;64868;45.710;9.590;2023-08-30T13:34:50;2.35;;;0.32;;
72949;SDS011;64868;45.710;9.590;2023-08-30T13:37:23;10.15;;;1.00;;
72949;SDS011;64868;45.710;9.590;2023-08-30T13:39:56;2.83;;;0.60;;
72949;SDS011;64868;45.710;9.590;2023-08-30T13:42:28;4.00;;;0.70;;
72949;SDS011;64868;45.710;9.590;2023-08-30T13:45:01;1.92;;;0.40;;
72949;SDS011;64868;45.710;9.590;2023-08-30T13:47:33;3.83;;;0.60;;
72949;SDS011;64868;45.710;9.590;2023-08-30T13:50:03;3.80;;;0.50;;
72949;SDS011;64868;45.710;9.590;2023-08-30T13:52:32;2.90;;;0.47;;
72949;SDS011;64868;45.710;9.590;2023-08-30T13:55:05;2.70;;;0.60;;
72949;SDS011;64868;45.710;9.590;2023-08-30T13:57:38;3.30;;;0.60;;
72949;SDS011;64868;45.710;9.590;2023-08-30T14:00:11;2.38;;;0.60;;
72949;SDS011;64868;45.710;9.590;2023-08-30T14:02:39;3.50;;;0.60;;
72949;SDS011;64868;45.710;9.590;2023-08-30T14:05:09;4.03;;;0.70;;
72949;SDS011;64868;45.710;9.590;2023-08-30T14:07:42;3.13;;;0.60;;
72949;SDS011;64868;45.710;9.590;2023-08-30T14:10:12;2.03;;;0.70;;
72949;SDS011;64868;45.710;9.590;2023-08-30T14:12:45;2.80;;;0.52;;
72949;SDS011;64868;45.710;9.590;2023-08-30T14:15:18;2.72;;;0.70;;
72949;SDS011;64868;45.710;9.590;2023-08-30T14:17:50;2.22;;;0.80;;
72949;SDS011;64868;45.710;9.590;2023-08-30T14:20:20;5.50;;;1.00;;
72949;SDS011;64868;45.710;9.590;2023-08-30T14:22:53;3.83;;;0.73;;
72949;SDS011;64868;45.710;9.590;2023-08-30T14:25:23;6.03;;;0.80;;
72949;SDS011;64868;45.710;9.590;2023-08-30T14:27:56;2.58;;;0.60;;
72949;SDS011;64868;45.710;9.590;2023-08-30T14:30:27;3.05;;;0.90;;
72949;SDS011;64868;45.710;9.590;2023-08-30T14:32:57;2.08;;;0.40;;
72949;SDS011;64868;45.710;9.590;2023-08-30T14:35:24;4.40;;;0.85;;
72949;SDS011;64868;45.710;9.590;2023-08-30T14:37:57;3.88;;;1.00;;
72949;SDS011;64868;45.710;9.590;2023-08-30T14:40:29;4.60;;;0.70;;
72949;SDS011;64868;45.710;9.590;2023-08-30T14:43:00;4.28;;;0.80;;
72949;SDS011;64868;45.710;9.590;2023-08-30T14:45:32;4.85;;;0.80;;
72949;SDS011;64868;45.710;9.590;2023-08-30T14:48:02;3.05;;;0.98;;
72949;SDS011;64868;45.710;9.590;2023-08-30T14:50:35;3.88;;;0.65;;
72949;SDS011;64868;45.710;9.590;2023-08-30T14:53:08;3.50;;;0.70;;
72949;SDS011;64868;45.710;9.590;2023-08-30T14:55:38;4.40;;;0.80;;
72949;SDS011;64868;45.710;9.590;2023-08-30T15:00:41;4.53;;;0.95;;
72949;SDS011;64868;45.710;9.590;2023-08-30T15:03:12;5.03;;;0.90;;
72949;SDS011;64868;45.710;9.590;2023-08-30T15:05:42;4.18;;;1.00;;
72949;SDS011;64868;45.710;9.590;2023-08-30T15:08:19;2.85;;;1.00;;
72949;SDS011;64868;45.710;9.590;2023-08-30T15:10:52;2.85;;;0.90;;
72949;SDS011;64868;45.710;9.590;2023-08-30T15:13:22;4.68;;;0.95;;
72949;SDS011;64868;45.710;9.590;2023-08-30T15:15:54;4.03;;;1.00;;
72949;SDS011;64868;45.710;9.590;2023-08-30T15:18:27;3.35;;;0.90;;
72949;SDS011;64868;45.710;9.590;2023-08-30T15:21:02;3.88;;;0.80;;
72949;SDS011;64868;45.710;9.590;2023-08-30T15:23:35;4.15;;;1.00;;
72949;SDS011;64868;45.710;9.590;2023-08-30T15:26:05;3.05;;;0.68;;
72949;SDS011;64868;45.710;9.590;2023-08-30T15:28:38;2.97;;;0.75;;
72949;SDS011;64868;45.710;9.590;2023-08-30T15:31:10;1.92;;;0.60;;